createdAt,value
2022-11-07T00:02:22.421Z,95.29
2022-11-07T00:04:51.152Z,95.34
2022-11-07T00:07:19.741Z,94.98
2022-11-07T00:09:48.323Z,95.26
2022-11-07T00:12:16.983Z,94.75
2022-11-07T00:14:45.607Z,95.12
2022-11-07T00:17:15.602Z,94.67
2022-11-07T00:19:44.201Z,94.84
2022-11-07T00:22:12.875Z,94.79
2022-11-07T00:24:41.989Z,94.96
2022-11-07T00:27:11.795Z,95.08
2022-11-07T00:29:41.140Z,94.84
2022-11-07T00:32:09.757Z,94.88
2022-11-07T00:34:39.794Z,95.00
2022-11-07T00:37:08.488Z,94.59
2022-11-07T00:39:37.119Z,95.00
2022-11-07T00:42:06.035Z,94.80
2022-11-07T00:44:35.033Z,95.30
2022-11-07T00:47:03.650Z,95.13
2022-11-07T00:49:32.382Z,95.06
2022-11-07T00:52:02.414Z,95.21
2022-11-07T00:54:31.093Z,95.07
2022-11-07T00:56:59.669Z,95.43
2022-11-07T00:59:28.312Z,95.54
2022-11-07T01:01:57.065Z,95.78
2022-11-07T01:04:43.359Z,96.07
2022-11-07T01:07:13.451Z,95.69
2022-11-07T01:09:42.144Z,95.73
2022-11-07T01:12:10.768Z,95.62
2022-11-07T01:14:39.457Z,95.50
2022-11-07T01:17:08.137Z,96.09
2022-11-07T01:19:36.901Z,96.42
2022-11-07T01:22:05.593Z,96.30
2022-11-07T01:24:35.862Z,96.08
2022-11-07T01:27:04.864Z,96.38
2022-11-07T01:29:33.446Z,95.97
2022-11-07T01:32:02.156Z,95.54
2022-11-07T01:34:30.819Z,95.48
2022-11-07T01:36:59.469Z,95.56
2022-11-07T01:39:28.166Z,95.86
2022-11-07T01:41:58.374Z,95.40
2022-11-07T01:44:55.668Z,95.64
2022-11-07T01:47:30.225Z,95.35
2022-11-07T01:50:00.338Z,95.43
2022-11-07T01:52:35.263Z,95.26
2022-11-07T01:55:09.868Z,95.40
2022-11-07T01:57:46.361Z,94.87
2022-11-07T02:00:20.080Z,94.82
2022-11-07T02:02:56.777Z,94.51
2022-11-07T02:05:32.076Z,94.26
2022-11-07T02:08:02.211Z,94.13
2022-11-07T02:10:31.507Z,93.96
2022-11-07T02:13:03.618Z,94.14
2022-11-07T02:15:33.793Z,93.47
2022-11-07T02:18:03.726Z,93.32
2022-11-07T02:20:32.449Z,93.41
2022-11-07T02:23:08.603Z,93.35
2022-11-07T02:25:39.446Z,93.08
2022-11-07T02:28:11.477Z,92.90
2022-11-07T02:30:40.145Z,92.78
2022-11-07T02:33:19.382Z,92.91
2022-11-07T02:35:51.337Z,92.32
2022-11-07T02:38:24.955Z,92.54
2022-11-07T02:41:01.513Z,91.94
2022-11-07T02:43:33.134Z,91.89
2022-11-07T02:46:07.108Z,92.04
2022-11-07T02:48:45.174Z,91.87
2022-11-07T02:51:13.944Z,91.89
2022-11-07T02:53:42.689Z,91.36
2022-11-07T02:56:12.682Z,91.27
2022-11-07T02:58:41.442Z,91.03
2022-11-07T03:01:10.397Z,90.98
2022-11-07T03:03:42.566Z,90.82
2022-11-07T03:06:14.919Z,90.62
2022-11-07T03:08:44.346Z,91.05
2022-11-07T03:11:19.889Z,91.18
2022-11-07T03:13:50.048Z,90.97
2022-11-07T03:16:20.850Z,91.29
2022-11-07T03:18:49.815Z,91.07
2022-11-07T03:21:18.513Z,91.12
2022-11-07T03:23:47.139Z,91.16
2022-11-07T03:26:17.534Z,91.43
2022-11-07T03:28:46.132Z,91.13
2022-11-07T03:31:14.752Z,91.02
2022-11-07T03:33:43.416Z,90.71
2022-11-07T03:36:12.557Z,90.74
2022-11-07T03:38:41.274Z,90.90
2022-11-07T03:41:10.038Z,91.01
2022-11-07T03:43:40.048Z,91.11
2022-11-07T03:46:08.654Z,91.50
2022-11-07T03:48:37.307Z,91.07
2022-11-07T03:51:06.354Z,91.04
2022-11-07T03:53:34.980Z,91.37
2022-11-07T03:56:10.629Z,91.09
2022-11-07T03:58:40.874Z,91.11
2022-11-07T04:01:11.753Z,91.10
2022-11-07T04:03:40.753Z,91.66
2022-11-07T04:06:09.776Z,91.04
2022-11-07T04:08:38.490Z,91.31
2022-11-07T04:11:07.702Z,90.65
2022-11-07T04:13:53.809Z,90.43
2022-11-07T04:16:41.292Z,90.63
2022-11-07T04:19:10.260Z,90.81
2022-11-07T04:21:39.276Z,90.69
2022-11-07T04:24:08.393Z,90.24
2022-11-07T04:26:54.411Z,90.17
2022-11-07T04:29:23.266Z,90.14
2022-11-07T04:31:53.393Z,90.25
2022-11-07T04:34:22.125Z,90.08
2022-11-07T04:36:50.836Z,90.52
2022-11-07T04:39:19.495Z,90.46
2022-11-07T04:41:48.064Z,90.55
2022-11-07T04:44:16.738Z,90.62
2022-11-07T04:46:45.381Z,90.55
2022-11-07T04:49:16.194Z,90.76
2022-11-07T04:51:45.991Z,90.76
2022-11-07T04:54:16.174Z,90.80
2022-11-07T04:56:44.872Z,91.24
2022-11-07T04:59:13.536Z,91.17
2022-11-07T05:01:42.246Z,91.69
2022-11-07T05:04:10.954Z,91.82
2022-11-07T05:06:41.129Z,92.69
2022-11-07T05:09:10.827Z,92.20
2022-11-07T05:11:39.490Z,92.39
2022-11-07T05:14:08.622Z,92.18
2022-11-07T05:16:39.038Z,91.97
2022-11-07T05:19:07.982Z,92.50
2022-11-07T05:21:36.961Z,92.69
2022-11-07T05:24:06.970Z,92.48
2022-11-07T05:26:35.796Z,91.95
2022-11-07T05:29:15.639Z,91.93
2022-11-07T05:31:45.215Z,91.90
2022-11-07T05:34:14.859Z,91.90
2022-11-07T05:36:44.357Z,91.87
2022-11-07T05:39:16.291Z,91.64
2022-11-07T05:41:56.384Z,91.89
2022-11-07T05:44:25.540Z,92.05
2022-11-07T05:46:54.804Z,91.92
2022-11-07T05:49:24.148Z,91.86
2022-11-07T05:51:53.535Z,91.79
2022-11-07T05:54:24.693Z,91.44
2022-11-07T05:56:58.443Z,91.95
2022-11-07T05:59:27.415Z,92.12
2022-11-07T06:01:56.160Z,91.47
2022-11-07T06:04:25.030Z,91.72
2022-11-07T06:06:53.659Z,91.30
2022-11-07T06:09:23.620Z,91.13
2022-11-07T06:11:52.286Z,90.96
2022-11-07T06:14:20.973Z,91.07
2022-11-07T06:16:49.531Z,91.77
2022-11-07T06:19:18.291Z,91.48
2022-11-07T06:21:46.857Z,91.77
2022-11-07T06:24:15.702Z,91.44
2022-11-07T06:26:45.778Z,91.51
2022-11-07T06:29:14.372Z,91.51
2022-11-07T06:31:43.058Z,92.04
2022-11-07T06:34:11.644Z,91.80
2022-11-07T06:36:40.225Z,91.54
2022-11-07T06:39:08.862Z,91.02
2022-11-07T06:41:37.486Z,91.13
2022-11-07T06:44:07.575Z,91.11
2022-11-07T06:46:36.135Z,91.16
2022-11-07T06:49:04.991Z,90.90
2022-11-07T06:51:33.801Z,91.60
2022-11-07T06:54:02.593Z,91.94
2022-11-07T06:56:31.249Z,91.73
2022-11-07T06:59:00.027Z,91.77
2022-11-07T07:01:30.189Z,91.50
2022-11-07T07:04:01.088Z,91.88
2022-11-07T07:06:29.783Z,92.04
2022-11-07T07:08:59.420Z,92.05
2022-11-07T07:11:28.034Z,92.16
2022-11-07T07:14:02.004Z,92.81
2022-11-07T07:16:32.758Z,92.93
2022-11-07T07:19:01.409Z,93.50
2022-11-07T07:21:30.119Z,94.25
2022-11-07T07:23:58.687Z,94.16
2022-11-07T07:26:28.492Z,94.64
2022-11-07T07:28:57.113Z,95.03
2022-11-07T07:31:31.912Z,95.30
2022-11-07T07:34:01.937Z,96.21
2022-11-07T07:36:30.537Z,96.87
2022-11-07T07:38:59.123Z,97.49
2022-11-07T07:41:27.705Z,99.70
2022-11-07T07:43:59.698Z,99.81
2022-11-07T07:46:31.625Z,100.00
2022-11-07T07:49:01.981Z,100.00
2022-11-07T07:56:52.088Z,100.00
2022-11-07T07:59:20.792Z,100.00
2022-11-07T08:01:55.204Z,100.00
2022-11-07T08:04:25.505Z,100.00
2022-11-07T08:06:54.134Z,100.00
2022-11-07T08:09:22.832Z,100.00
2022-11-07T08:11:52.900Z,100.00
2022-11-07T08:14:22.625Z,100.00
2022-11-07T08:16:51.250Z,100.00
2022-11-07T08:19:19.835Z,100.00
2022-11-07T08:21:48.386Z,100.00
2022-11-07T08:24:17.029Z,100.00
2022-11-07T08:26:46.192Z,100.00
2022-11-07T08:29:16.258Z,100.00
2022-11-07T08:31:44.912Z,99.76
2022-11-07T08:34:13.533Z,99.52
2022-11-07T08:36:42.256Z,99.87
2022-11-07T08:39:10.916Z,100.00
2022-11-07T08:41:39.587Z,99.89
2022-11-07T08:44:09.872Z,99.92
2022-11-07T08:46:39.892Z,99.52
2022-11-07T08:49:08.555Z,99.16
2022-11-07T08:51:37.294Z,99.38
2022-11-07T08:54:06.376Z,98.53
2022-11-07T08:56:35.248Z,98.16
2022-11-07T08:59:03.855Z,97.45
2022-11-07T09:01:32.625Z,96.04
2022-11-07T09:04:02.873Z,94.86
2022-11-07T09:06:32.979Z,94.72
2022-11-07T09:09:01.815Z,93.99
2022-11-07T09:11:30.618Z,94.38
2022-11-07T09:19:02.361Z,94.43
2022-11-07T09:21:29.675Z,94.94
2022-11-07T09:23:56.997Z,95.11
2022-11-07T09:26:24.274Z,94.92
2022-11-07T09:28:54.110Z,94.80
2022-11-07T09:31:23.617Z,94.72
2022-11-07T09:33:51.110Z,94.04
2022-11-07T12:40:11.495Z,79.62
2022-11-07T12:44:20.846Z,79.82
2022-11-07T12:46:56.003Z,80.68
2022-11-07T12:50:02.967Z,80.93
2022-11-07T12:52:50.188Z,80.62
2022-11-07T12:55:25.737Z,81.00
2022-11-07T12:57:56.216Z,80.92
2022-11-07T13:00:30.306Z,81.31
2022-11-07T13:03:38.183Z,79.82
2022-11-07T13:06:19.601Z,79.80
2022-11-07T13:09:03.168Z,79.75
2022-11-07T13:11:46.043Z,78.75
2022-11-07T13:14:27.402Z,79.32
2022-11-07T13:17:15.208Z,78.55
2022-11-07T13:19:46.199Z,77.82
2022-11-07T13:22:33.551Z,78.33
2022-11-07T13:25:28.769Z,77.97
2022-11-07T13:28:26.737Z,77.46
2022-11-07T13:31:06.582Z,77.18
2022-11-07T13:33:38.211Z,77.22
2022-11-07T13:36:15.757Z,78.20
2022-11-07T13:38:52.729Z,77.60
2022-11-07T13:41:22.231Z,77.97
2022-11-07T13:43:58.919Z,79.04
2022-11-07T13:46:33.297Z,78.00
2022-11-07T13:49:11.740Z,78.55
2022-11-07T13:51:45.773Z,77.87
2022-11-07T13:54:27.241Z,76.77
2022-11-07T13:57:01.185Z,76.99
2022-11-07T13:59:45.539Z,77.85
2022-11-07T14:02:21.963Z,79.16
2022-11-07T14:05:15.182Z,77.67
2022-11-07T14:07:54.720Z,78.50
2022-11-07T14:10:30.179Z,79.06
2022-11-07T14:13:07.731Z,78.27
2022-11-07T14:15:44.411Z,78.90
2022-11-07T14:18:17.230Z,79.13
2022-11-07T14:20:53.783Z,78.76
2022-11-07T14:23:26.056Z,77.30
2022-11-07T14:26:01.009Z,78.20
2022-11-07T14:28:36.941Z,78.62
2022-11-07T14:31:09.179Z,79.24
2022-11-07T14:33:39.081Z,79.30
2022-11-07T14:36:13.369Z,79.55
2022-11-07T14:38:49.480Z,79.55
2022-11-07T14:41:20.068Z,80.33
2022-11-07T14:43:50.759Z,81.07
2022-11-07T14:46:24.267Z,81.15
2022-11-07T14:48:54.909Z,81.34
2022-11-07T14:51:30.359Z,81.84
2022-11-07T14:54:06.022Z,82.35
2022-11-07T14:56:40.319Z,82.19
2022-11-07T14:59:14.118Z,82.50
2022-11-07T15:01:56.561Z,82.15
2022-11-07T15:04:31.599Z,82.50
2022-11-07T15:07:12.438Z,82.58
2022-11-07T15:09:42.361Z,82.74
2022-11-07T15:12:21.217Z,82.79
2022-11-07T15:15:04.365Z,82.99
2022-11-07T15:17:40.076Z,83.71
2022-11-07T15:20:21.329Z,83.53
2022-11-07T15:22:51.557Z,83.67
2022-11-07T15:25:30.406Z,84.17
2022-11-07T15:27:59.347Z,83.79
2022-11-07T15:30:33.359Z,83.32
2022-11-07T15:33:02.305Z,83.18
2022-11-07T15:35:44.110Z,83.23
2022-11-07T15:38:22.148Z,82.96
2022-11-07T15:40:51.902Z,83.46
2022-11-07T15:43:22.081Z,83.62
2022-11-07T15:45:53.871Z,83.73
2022-11-07T15:48:28.376Z,83.60
2022-11-07T15:50:57.888Z,83.75
2022-11-07T15:53:33.359Z,84.13
2022-11-07T15:56:08.327Z,84.44
2022-11-07T15:58:37.052Z,84.43
2022-11-07T16:01:05.940Z,84.63
2022-11-07T16:03:34.585Z,84.71
2022-11-07T16:06:04.034Z,84.79
2022-11-07T16:08:35.698Z,84.85
2022-11-07T16:11:07.712Z,84.83
2022-11-07T16:13:36.414Z,85.17
2022-11-07T16:16:06.957Z,85.26
2022-11-07T16:18:42.177Z,84.86
2022-11-07T16:21:10.788Z,84.83
2022-11-07T16:23:42.338Z,85.11
2022-11-07T16:26:14.664Z,85.11
2022-11-07T16:28:45.329Z,85.34
2022-11-07T16:31:14.021Z,85.48
2022-11-07T16:33:42.721Z,85.55
2022-11-07T16:36:24.396Z,85.64
2022-11-07T16:38:56.502Z,85.97
2022-11-07T16:41:25.345Z,86.07
2022-11-07T16:43:54.108Z,85.75
2022-11-07T16:46:26.540Z,86.00
2022-11-07T16:49:03.223Z,86.24
2022-11-07T16:51:33.166Z,86.34
2022-11-07T16:54:03.857Z,86.31
2022-11-07T16:56:36.381Z,86.87
2022-11-07T16:59:08.412Z,86.76
2022-11-07T17:01:38.259Z,86.92
2022-11-07T17:04:07.628Z,86.88
2022-11-07T17:06:37.116Z,86.91
2022-11-07T17:09:13.305Z,87.04
2022-11-07T17:11:42.553Z,87.16
2022-11-07T17:14:11.337Z,87.42
2022-11-07T17:16:43.329Z,86.92
2022-11-07T17:19:13.574Z,87.15
2022-11-07T17:21:46.313Z,87.27
2022-11-07T17:24:16.792Z,87.00
2022-11-07T17:26:45.646Z,86.91
2022-11-07T17:29:15.702Z,86.94
2022-11-07T17:31:44.838Z,87.10
2022-11-07T17:34:13.614Z,87.24
2022-11-07T17:36:46.344Z,87.37
2022-11-07T17:39:20.422Z,86.92
2022-11-07T17:41:51.955Z,87.31
2022-11-07T17:44:21.061Z,87.13
2022-11-07T17:46:51.212Z,87.36
2022-11-07T17:49:22.193Z,86.99
2022-11-07T17:51:54.313Z,86.88
2022-11-07T17:54:29.269Z,87.33
2022-11-07T17:56:58.427Z,86.99
2022-11-07T17:59:27.121Z,86.77
2022-11-07T18:01:56.140Z,86.72
2022-11-07T18:04:24.969Z,87.08
2022-11-07T18:06:54.239Z,86.80
2022-11-07T18:09:24.681Z,86.56
2022-11-07T18:11:53.531Z,87.20
2022-11-07T18:14:22.315Z,87.59
2022-11-07T18:16:51.087Z,87.24
2022-11-07T18:19:19.953Z,86.71
2022-11-07T18:21:48.748Z,86.64
2022-11-07T18:24:17.624Z,86.79
2022-11-07T18:26:50.884Z,86.78
2022-11-07T18:29:21.589Z,86.79
2022-11-07T18:31:53.736Z,87.20
2022-11-07T18:34:22.674Z,87.13
2022-11-07T18:36:51.606Z,87.23
2022-11-07T18:39:23.053Z,87.08
2022-11-07T18:42:04.816Z,86.87
2022-11-07T18:44:33.750Z,87.64
2022-11-07T18:47:02.587Z,87.70
2022-11-07T18:49:31.486Z,88.05
2022-11-07T18:52:00.777Z,88.24
2022-11-07T18:54:30.039Z,88.15
2022-11-07T18:57:00.353Z,87.79
2022-11-07T18:59:29.553Z,87.62
2022-11-07T19:01:59.459Z,87.79
2022-11-07T19:04:28.456Z,88.16
2022-11-07T19:06:57.644Z,88.29
2022-11-07T19:09:33.452Z,88.87
2022-11-07T19:12:03.872Z,88.23
2022-11-07T19:14:33.195Z,87.64
2022-11-07T19:17:01.817Z,87.98
2022-11-07T19:19:30.617Z,88.85
2022-11-07T19:21:59.263Z,88.18
2022-11-07T19:24:27.955Z,88.75
2022-11-07T19:26:56.708Z,88.12
2022-11-07T19:29:27.401Z,88.35
2022-11-07T19:31:56.080Z,88.57
2022-11-07T19:34:25.828Z,88.61
2022-11-07T19:36:55.002Z,88.71
2022-11-07T19:39:25.180Z,88.24
2022-11-07T19:41:54.265Z,88.23
2022-11-07T19:44:22.870Z,88.27
2022-11-07T19:46:57.071Z,88.21
2022-11-07T19:49:26.134Z,88.02
2022-11-07T19:51:56.288Z,87.71
2022-11-07T19:54:25.159Z,87.70
2022-11-07T19:56:57.667Z,87.94
2022-11-07T19:59:26.681Z,88.37
2022-11-07T20:02:25.969Z,88.69
2022-11-07T20:04:46.769Z,88.14
2022-11-07T20:07:16.163Z,88.46
2022-11-07T20:09:45.206Z,89.10
2022-11-07T20:12:14.028Z,89.19
2022-11-07T20:14:42.775Z,88.79
2022-11-07T20:17:12.968Z,88.27
2022-11-07T20:19:41.570Z,88.79
2022-11-07T20:22:12.200Z,89.04
2022-11-07T20:24:41.151Z,88.80
2022-11-07T20:27:09.856Z,88.50
2022-11-07T20:29:39.106Z,89.51
2022-11-07T20:32:08.218Z,89.57
2022-11-07T20:34:41.357Z,89.98
2022-11-07T20:37:10.776Z,89.86
2022-11-07T20:39:42.639Z,89.04
2022-11-07T20:42:11.609Z,89.13
2022-11-07T20:44:41.171Z,88.65
2022-11-07T20:47:11.018Z,89.05
2022-11-07T20:49:42.912Z,88.43
2022-11-07T20:52:11.812Z,88.40
2022-11-07T20:54:40.516Z,88.07
2022-11-07T20:57:09.639Z,88.01
2022-11-07T20:59:41.288Z,88.22
2022-11-07T21:02:13.123Z,87.86
2022-11-07T21:05:03.174Z,88.12
2022-11-07T21:07:31.814Z,88.29
2022-11-07T21:10:00.397Z,88.27
2022-11-07T21:12:29.236Z,88.33
2022-11-07T21:14:57.844Z,88.20
2022-11-07T21:17:26.524Z,88.07
2022-11-07T21:19:57.639Z,88.09
2022-11-07T21:22:29.351Z,88.31
2022-11-07T21:24:58.658Z,88.58
2022-11-07T21:27:27.279Z,88.61
2022-11-07T21:29:55.893Z,88.68
2022-11-07T21:32:24.524Z,88.81
2022-11-07T21:34:53.265Z,89.02
2022-11-07T21:37:23.276Z,89.31
2022-11-07T21:39:51.953Z,89.32
2022-11-07T21:42:20.679Z,89.08
2022-11-07T21:44:49.295Z,89.09
2022-11-07T21:47:17.883Z,88.67
2022-11-07T21:49:48.794Z,88.77
2022-11-07T21:52:18.017Z,88.54
2022-11-07T21:54:48.143Z,88.41
2022-11-07T21:57:16.771Z,88.49
2022-11-07T21:59:46.299Z,89.35
2022-11-07T22:02:15.139Z,88.68
2022-11-07T22:04:43.724Z,88.84
2022-11-07T22:07:12.837Z,89.15
2022-11-07T22:09:41.481Z,88.82
2022-11-07T22:12:11.513Z,88.99
2022-11-07T22:14:40.113Z,88.36
2022-11-07T22:17:08.692Z,88.89
2022-11-07T22:19:37.334Z,89.30
2022-11-07T22:22:05.905Z,89.51
2022-11-07T22:24:34.547Z,89.51
2022-11-07T22:27:03.192Z,89.55
2022-11-07T22:29:33.311Z,89.81
2022-11-07T22:32:02.375Z,89.33
2022-11-07T22:34:31.154Z,89.43
2022-11-07T22:37:00.456Z,88.89
2022-11-07T22:39:29.147Z,88.64
2022-11-07T22:41:57.714Z,88.81
2022-11-07T22:44:26.440Z,89.02
2022-11-07T22:46:56.380Z,89.11
2022-11-07T22:49:24.893Z,89.42
2022-11-07T22:51:53.535Z,90.06
2022-11-07T22:54:22.129Z,89.95
2022-11-07T22:56:50.740Z,89.89
2022-11-07T22:59:19.373Z,90.28
2022-11-07T23:01:48.046Z,90.67
2022-11-07T23:04:18.811Z,90.72
2022-11-07T23:06:47.492Z,90.73
2022-11-07T23:09:17.770Z,91.21
2022-11-07T23:11:48.269Z,91.25
2022-11-07T23:14:20.281Z,90.66
2022-11-07T23:16:51.598Z,90.75
2022-11-07T23:19:25.585Z,90.87
2022-11-07T23:21:56.489Z,90.52
2022-11-07T23:24:25.541Z,90.25
2022-11-07T23:26:54.248Z,90.62
2022-11-07T23:29:25.418Z,90.74
2022-11-07T23:31:54.304Z,90.46
2022-11-07T23:34:26.019Z,90.47
2022-11-07T23:36:54.654Z,90.89
2022-11-07T23:39:26.082Z,90.91
2022-11-07T23:41:54.734Z,90.74
2022-11-07T23:44:23.782Z,91.07
2022-11-07T23:47:09.897Z,91.09
2022-11-07T23:49:57.369Z,90.44
2022-11-07T23:52:25.972Z,90.81
2022-11-07T23:55:11.970Z,90.38
2022-11-07T23:57:54.507Z,91.08
